Latest Coastal Weather Observations for Sydney Harbour

IDN60701

Issued at 3:21 pm EDT Sunday 29 March 2015 (issued every 10 minutes, with the page automatically refreshed every 10 minutes)

About coastal observations | Map of coastal stations | Coastal observations for NSW | Marine services | Other Formats
Station Details ID: 066196 Name: WEDDING CAKE WEST Lat: -33.84 Lon: 151.26 Height: 6.0 m
Data from the previous 72 hours. | See also: Recent months for locations in New South Wales
Date/Time
EDT
Temp

°C
Wind Pressure Rain
since 9am
mm
Weather Cloud Vis
km
Sea
Height
m
Swell
Dir
 
Speed
knots
Gust
knots
hPa Trend Height
m
Period
s
Dir
29/03:00pm 21.9 NNE 14 17 - - - - - - - - - -
29/02:30pm 21.6 ENE 13 16 - - - - - - - - - -
29/02:00pm 21.7 NE 13 16 - - - - - - - - - -
29/01:30pm 21.5 NE 12 13 - - - - - - - - - -
29/01:00pm 21.5 NNE 13 16 - - - - - - - - - -
29/12:30pm 21.5 NNE 11 13 - - - - - - - - - -
29/11:30am 20.0 SSW 5 6 - - - - - - - - - -
29/11:00am 19.7 WSW 6 7 - - - - - - - - - -
29/10:30am 19.1 WSW 7 8 - - - - - - - - - -
29/10:00am 19.2 SW 5 6 - - - - - - - - - -
29/09:30am 18.7 WSW 1 4 - - - - - - - - - -
29/09:00am 17.6 WSW 5 6 - - - - - - - - - -
29/08:30am 17.1 WSW 5 6 - - - - - - - - - -
29/08:00am 17.2 WSW 5 6 - - - - - - - - - -
29/07:30am 17.2 WSW 4 5 - - - - - - - - - -
29/07:00am 17.0 WSW 5 6 - - - - - - - - - -
29/06:30am 17.4 WSW 4 5 - - - - - - - - - -
29/06:00am 17.4 CALM 0 3 - - - - - - - - - -
29/05:30am 17.4 WSW 3 5 - - - - - - - - - -
29/05:00am 17.4 W 5 7 - - - - - - - - - -
29/04:30am 17.5 W 4 5 - - - - - - - - - -
29/04:00am 17.6 W 4 5 - - - - - - - - - -
29/03:30am 17.9 W 5 8 - - - - - - - - - -
29/03:00am 18.2 W 3 6 - - - - - - - - - -
29/02:30am 18.4 ENE 5 7 - - - - - - - - - -
29/02:00am 18.8 ENE 4 5 - - - - - - - - - -
29/01:30am 19.0 ENE 4 5 - - - - - - - - - -
29/01:00am 19.3 CALM 0 0 - - - - - - - - - -
29/12:30am 20.1 ENE 4 6 - - - - - - - - - -
 
Date/Time
EDT
Temp

°C
Wind Pressure Rain
since 9am
mm
Weather Cloud Vis
km
Sea
Height
m
Swell
Dir
 
Speed
knots
Gust
knots
hPa Trend Height
m
Period
s
Dir
28/11:30pm 20.1 ENE 5 7 - - - - - - - - - -
28/11:00pm 20.0 E 6 8 - - - - - - - - - -
28/10:30pm 20.2 ESE 5 6 - - - - - - - - - -
28/10:00pm 20.2 ESE 7 8 - - - - - - - - - -
28/09:30pm 20.1 SE 7 10 - - - - - - - - - -
28/09:00pm 20.1 ESE 8 9 - - - - - - - - - -
28/08:30pm 20.0 ESE 7 11 - - - - - - - - - -
28/08:00pm 20.1 SE 9 13 - - - - - - - - - -
28/07:30pm 20.2 ESE 9 11 - - - - - - - - - -
28/07:00pm 20.2 SE 9 13 - - - - - - - - - -
28/06:30pm 20.3 SE 8 10 - - - - - - - - - -
28/06:00pm 21.0 SE 10 13 - - - - - - - - - -
28/05:30pm 21.4 ESE 9 12 - - - - - - - - - -
28/05:00pm 20.9 ESE 9 13 - - - - - - - - - -
28/04:30pm 21.4 SE 9 12 - - - - - - - - - -
28/04:00pm 21.3 SE 10 14 - - - - - - - - - -
28/03:30pm 21.3 SE 11 15 - - - - - - - - - -
28/03:00pm 20.5 SE 11 14 - - - - - - - - - -
28/02:30pm 20.9 SE 11 14 - - - - - - - - - -
28/02:00pm 21.1 SE 10 14 - - - - - - - - - -
28/01:30pm 20.8 S 10 14 - - - - - - - - - -
28/01:00pm 20.7 SSE 10 14 - - - - - - - - - -
28/12:30pm 20.6 S 11 14 - - - - - - - - - -
28/12:00pm 20.6 SSE 12 15 - - - - - - - - - -
28/11:30am 20.3 SSW 7 11 - - - - - - - - - -
28/11:00am 19.9 SW 6 9 - - - - - - - - - -
28/10:30am 19.4 WSW 10 12 - - - - - - - - - -
28/10:00am 18.8 W 12 15 - - - - - - - - - -
28/09:30am 18.3 W 12 16 - - - - - - - - - -
28/09:00am 17.6 W 13 15 - - - - - - - - - -
28/08:30am 17.3 WSW 12 15 - - - - - - - - - -
28/08:00am 17.0 WSW 12 15 - - - - - - - - - -
28/07:30am 16.9 WSW 12 15 - - - - - - - - - -
28/07:00am 17.1 WSW 12 16 - - - - - - - - - -
28/06:30am 17.2 W 13 15 - - - - - - - - - -
28/06:00am 17.4 WSW 12 16 - - - - - - - - - -
28/05:30am 17.6 WSW 13 16 - - - - - - - - - -
28/05:00am 17.7 WSW 11 16 - - - - - - - - - -
28/04:30am 17.8 WSW 12 16 - - - - - - - - - -
28/04:00am 18.0 WSW 12 17 - - - - - - - - - -
28/03:30am 18.0 WSW 13 16 - - - - - - - - - -
28/03:00am 18.5 W 13 17 - - - - - - - - - -
28/02:30am 18.7 WSW 11 15 - - - - - - - - - -
28/02:00am 19.3 WSW 11 19 - - - - - - - - - -
28/01:30am 19.5 WSW 11 15 - - - - - - - - - -
28/01:00am 19.9 WSW 13 17 - - - - - - - - - -
28/12:30am 20.2 WSW 11 15 - - - - - - - - - -
28/12:00am 20.5 WSW 12 16 - - - - - - - - - -
 
Date/Time
EDT
Temp

°C
Wind Pressure Rain
since 9am
mm
Weather Cloud Vis
km
Sea
Height
m
Swell
Dir
 
Speed
knots
Gust
knots
hPa Trend Height
m
Period
s
Dir
27/11:30pm 20.8 WSW 13 17 - - - - - - - - - -
27/11:00pm 21.2 WSW 12 17 - - - - - - - - - -
27/10:30pm 21.5 WSW 11 16 - - - - - - - - - -
27/10:00pm 21.9 W 9 15 - - - - - - - - - -
27/09:30pm 21.8 W 7 9 - - - - - - - - - -
27/09:00pm 21.9 WNW 5 7 - - - - - - - - - -
27/08:30pm 21.4 NNE 5 8 - - - - - - - - - -
27/08:00pm 21.5 NNE 3 5 - - - - - - - - - -
27/07:30pm 22.0 NNE 6 7 - - - - - - - - - -
27/07:00pm 22.1 NE 7 8 - - - - - - - - - -
27/06:30pm 22.2 ENE 6 8 - - - - - - - - - -
27/06:00pm 22.5 ENE 8 10 - - - - - - - - - -
27/05:30pm 23.1 E 11 13 - - - - - - - - - -
27/05:00pm 23.8 ESE 10 16 - - - - - - - - - -
27/04:30pm 24.6 SW 13 18 - - - - - - - - - -
27/04:00pm 24.7 WSW 10 15 - - - - - - - - - -
27/03:30pm 24.6 W 12 18 - - - - - - - - - -
27/03:00pm 23.8 WSW 7 11 - - - - - - - - - -
27/02:30pm 23.2 W 7 13 - - - - - - - - - -
27/02:00pm 22.6 WSW 13 20 - - - - - - - - - -
27/01:30pm 22.2 WNW 14 18 - - - - - - - - - -
27/01:00pm 21.6 W 13 18 - - - - - - - - - -
27/12:30pm 20.7 WNW 8 15 - - - - - - - - - -
27/12:00pm 20.0 W 11 14 - - - - - - - - - -
27/11:30am 19.3 W 12 16 - - - - - - - - - -
27/11:00am 18.6 W 13 19 - - - - - - - - - -
27/10:30am 18.0 W 11 18 - - - - - - - - - -
27/10:00am 17.4 W 11 17 - - - - - - - - - -
27/09:30am 17.3 W 15 21 - - - - - - - - - -
27/09:00am 16.5 WSW 11 17 - - - - - - - - - -
27/08:30am 16.2 W 12 16 - - - - - - - - - -
27/08:00am 16.4 WSW 14 22 - - - - - - - - - -
27/07:30am 16.2 WSW 11 19 - - - - - - - - - -
27/07:00am 16.3 W 11 16 - - - - - - - - - -
27/06:30am 16.4 W 11 14 - - - - - - - - - -
27/06:00am 16.5 W 12 16 - - - - - - - - - -
27/05:30am 17.0 W 14 19 - - - - - - - - - -
27/05:00am 17.1 WSW 17 25 - - - - - - - - - -
27/04:31am 17.2 WSW 15 25 - - - - - - - - - -
27/04:30am 17.3 W 14 25 - - - - - - - - - -
27/04:14am 17.3 WSW 16 26 - - - - - - - - - -
27/04:00am 17.6 WSW 17 23 - - - - - - - - - -
27/03:30am 17.8 WSW 18 27 - - - - - - - - - -
27/03:29am 17.9 WSW 17 27 - - - - - - - - - -
27/03:00am 18.2 WSW 22 27 - - - - - - - - - -
27/02:30am 18.6 WSW 19 26 - - - - - - - - - -
27/02:00am 19.0 WSW 23 31 - - - - - - - - - -
27/01:30am 19.0 WSW 20 29 - - - - - - - - - -
27/01:00am 19.2 WSW 21 28 - - - - - - - - - -
27/12:30am 19.4 WSW 17 23 - - - - - - - - - -
27/12:00am 19.9 WSW 18 24 - - - - - - - - - -
 
Date/Time
EDT
Temp

°C
Wind Pressure Rain
since 9am
mm
Weather Cloud Vis
km
Sea
Height
m
Swell
Dir
 
Speed
knots
Gust
knots
hPa Trend Height
m
Period
s
Dir
26/11:30pm 20.5 WSW 18 27 - - - - - - - - - -
26/11:00pm 21.0 WSW 16 21 - - - - - - - - - -
26/10:30pm 21.6 WSW 13 17 - - - - - - - - - -
26/10:00pm 22.3 WSW 13 17 - - - - - - - - - -
26/09:30pm 23.0 WSW 14 21 - - - - - - - - - -
26/09:00pm 21.7 SE 4 6 - - - - - - - - - -
26/08:30pm 20.9 ESE 3 5 - - - - - - - - - -
26/08:00pm 21.5 CALM 0 0 - - - - - - - - - -
26/07:30pm 22.6 ESE 3 4 - - - - - - - - - -
26/07:00pm 22.7 ESE 5 6 - - - - - - - - - -
26/06:30pm 23.5 SE 6 8 - - - - - - - - - -
26/06:00pm 23.0 ESE 8 9 - - - - - - - - - -
26/05:30pm 23.7 ESE 9 12 - - - - - - - - - -
26/05:00pm 23.6 ESE 11 14 - - - - - - - - - -
26/04:30pm 24.0 ESE 11 13 - - - - - - - - - -
26/04:00pm 24.1 E 10 13 - - - - - - - - - -
26/03:30pm 26.1 NW 7 11 - - - - - - - - - -

Other Formats:

Comma delimited format used in spreadsheet applications
http://www.bom.gov.au/fwo/IDN60701/IDN60701.95766.axf

JavaScript Object Notation format (JSON) in row-major order
http://www.bom.gov.au/fwo/IDN60701/IDN60701.95766.json